sensor_id;sensor_type;location;lat;lon;timestamp;P1;durP1;ratioP1;P2;durP2;ratioP2
64875;SDS011;51369;49.862;9.908;2024-03-08T00:00:07;30.30;;;16.45;;
64875;SDS011;51369;49.862;9.908;2024-03-08T00:02:39;34.55;;;16.80;;
64875;SDS011;51369;49.862;9.908;2024-03-08T00:05:05;31.02;;;16.27;;
64875;SDS011;51369;49.862;9.908;2024-03-08T00:07:33;32.95;;;17.42;;
64875;SDS011;51369;49.862;9.908;2024-03-08T00:09:59;29.50;;;16.38;;
64875;SDS011;51369;49.862;9.908;2024-03-08T00:12:24;35.38;;;17.25;;
64875;SDS011;51369;49.862;9.908;2024-03-08T00:14:52;30.05;;;16.15;;
64875;SDS011;51369;49.862;9.908;2024-03-08T00:17:17;33.10;;;17.77;;
64875;SDS011;51369;49.862;9.908;2024-03-08T00:19:43;33.85;;;17.80;;
64875;SDS011;51369;49.862;9.908;2024-03-08T00:22:08;34.25;;;17.48;;
64875;SDS011;51369;49.862;9.908;2024-03-08T00:24:33;31.42;;;16.95;;
64875;SDS011;51369;49.862;9.908;2024-03-08T00:26:59;29.25;;;16.75;;
64875;SDS011;51369;49.862;9.908;2024-03-08T00:29:24;37.28;;;17.98;;
64875;SDS011;51369;49.862;9.908;2024-03-08T00:31:49;34.30;;;17.65;;
64875;SDS011;51369;49.862;9.908;2024-03-08T00:34:15;35.92;;;17.88;;
64875;SDS011;51369;49.862;9.908;2024-03-08T00:36:41;32.28;;;18.15;;
64875;SDS011;51369;49.862;9.908;2024-03-08T00:39:06;39.08;;;18.08;;
64875;SDS011;51369;49.862;9.908;2024-03-08T00:41:32;33.30;;;18.02;;
64875;SDS011;51369;49.862;9.908;2024-03-08T00:43:57;33.05;;;18.00;;
64875;SDS011;51369;49.862;9.908;2024-03-08T00:46:23;37.15;;;19.02;;
64875;SDS011;51369;49.862;9.908;2024-03-08T00:48:48;30.73;;;17.33;;
64875;SDS011;51369;49.862;9.908;2024-03-08T00:51:14;28.58;;;17.30;;
64875;SDS011;51369;49.862;9.908;2024-03-08T00:53:41;34.30;;;17.85;;
64875;SDS011;51369;49.862;9.908;2024-03-08T00:56:07;33.88;;;18.08;;
64875;SDS011;51369;49.862;9.908;2024-03-08T00:58:36;33.22;;;17.40;;
64875;SDS011;51369;49.862;9.908;2024-03-08T01:01:02;35.53;;;18.08;;
64875;SDS011;51369;49.862;9.908;2024-03-08T01:03:27;34.85;;;17.63;;
64875;SDS011;51369;49.862;9.908;2024-03-08T01:05:53;31.02;;;17.38;;
64875;SDS011;51369;49.862;9.908;2024-03-08T01:08:19;33.92;;;17.40;;
64875;SDS011;51369;49.862;9.908;2024-03-08T01:10:44;36.92;;;17.08;;
64875;SDS011;51369;49.862;9.908;2024-03-08T01:13:09;35.55;;;17.10;;
64875;SDS011;51369;49.862;9.908;2024-03-08T01:15:35;36.70;;;18.00;;
64875;SDS011;51369;49.862;9.908;2024-03-08T01:18:00;33.75;;;17.45;;
64875;SDS011;51369;49.862;9.908;2024-03-08T01:20:26;34.55;;;18.58;;
64875;SDS011;51369;49.862;9.908;2024-03-08T01:22:51;35.22;;;17.80;;
64875;SDS011;51369;49.862;9.908;2024-03-08T01:25:17;34.78;;;17.77;;
64875;SDS011;51369;49.862;9.908;2024-03-08T01:27:42;32.60;;;18.48;;
64875;SDS011;51369;49.862;9.908;2024-03-08T01:30:08;34.47;;;17.35;;
64875;SDS011;51369;49.862;9.908;2024-03-08T01:32:34;31.92;;;17.58;;
64875;SDS011;51369;49.862;9.908;2024-03-08T01:35:00;34.83;;;17.70;;
64875;SDS011;51369;49.862;9.908;2024-03-08T01:37:25;36.70;;;18.13;;
64875;SDS011;51369;49.862;9.908;2024-03-08T01:39:51;35.83;;;19.02;;
64875;SDS011;51369;49.862;9.908;2024-03-08T01:42:17;41.28;;;17.88;;
64875;SDS011;51369;49.862;9.908;2024-03-08T01:44:42;38.63;;;19.00;;
64875;SDS011;51369;49.862;9.908;2024-03-08T01:47:09;38.88;;;18.20;;
64875;SDS011;51369;49.862;9.908;2024-03-08T01:49:36;37.15;;;18.77;;
64875;SDS011;51369;49.862;9.908;2024-03-08T01:52:02;35.25;;;18.95;;
64875;SDS011;51369;49.862;9.908;2024-03-08T01:54:28;40.60;;;20.13;;
64875;SDS011;51369;49.862;9.908;2024-03-08T01:56:55;37.95;;;18.95;;
64875;SDS011;51369;49.862;9.908;2024-03-08T01:59:22;39.53;;;18.63;;
64875;SDS011;51369;49.862;9.908;2024-03-08T02:01:48;34.83;;;18.65;;
64875;SDS011;51369;49.862;9.908;2024-03-08T02:04:14;35.90;;;18.60;;
64875;SDS011;51369;49.862;9.908;2024-03-08T02:06:39;40.35;;;19.10;;
64875;SDS011;51369;49.862;9.908;2024-03-08T02:09:04;34.35;;;18.02;;
64875;SDS011;51369;49.862;9.908;2024-03-08T02:11:33;36.67;;;18.15;;
64875;SDS011;51369;49.862;9.908;2024-03-08T02:13:59;37.70;;;18.58;;
64875;SDS011;51369;49.862;9.908;2024-03-08T02:16:25;30.75;;;16.48;;
64875;SDS011;51369;49.862;9.908;2024-03-08T02:18:50;36.65;;;19.30;;
64875;SDS011;51369;49.862;9.908;2024-03-08T02:21:18;34.53;;;18.10;;
64875;SDS011;51369;49.862;9.908;2024-03-08T02:23:44;35.75;;;18.27;;
64875;SDS011;51369;49.862;9.908;2024-03-08T02:26:09;38.42;;;18.83;;
64875;SDS011;51369;49.862;9.908;2024-03-08T02:28:35;38.88;;;19.50;;
64875;SDS011;51369;49.862;9.908;2024-03-08T02:31:01;36.28;;;18.83;;
64875;SDS011;51369;49.862;9.908;2024-03-08T02:33:27;37.45;;;19.35;;
64875;SDS011;51369;49.862;9.908;2024-03-08T02:35:54;38.20;;;18.60;;
64875;SDS011;51369;49.862;9.908;2024-03-08T02:38:21;35.10;;;18.45;;
64875;SDS011;51369;49.862;9.908;2024-03-08T02:40:50;34.97;;;18.98;;
64875;SDS011;51369;49.862;9.908;2024-03-08T02:43:16;37.65;;;18.58;;
64875;SDS011;51369;49.862;9.908;2024-03-08T02:45:43;36.22;;;18.40;;
64875;SDS011;51369;49.862;9.908;2024-03-08T02:48:09;36.88;;;19.58;;
64875;SDS011;51369;49.862;9.908;2024-03-08T02:50:34;39.53;;;20.05;;
64875;SDS011;51369;49.862;9.908;2024-03-08T02:53:01;40.38;;;19.48;;
64875;SDS011;51369;49.862;9.908;2024-03-08T02:55:27;40.85;;;20.13;;
64875;SDS011;51369;49.862;9.908;2024-03-08T02:57:52;39.92;;;19.45;;
64875;SDS011;51369;49.862;9.908;2024-03-08T03:00:21;41.25;;;19.80;;
64875;SDS011;51369;49.862;9.908;2024-03-08T03:02:48;44.53;;;19.83;;
64875;SDS011;51369;49.862;9.908;2024-03-08T03:05:13;41.58;;;18.83;;
64875;SDS011;51369;49.862;9.908;2024-03-08T03:07:39;38.17;;;20.90;;
64875;SDS011;51369;49.862;9.908;2024-03-08T03:10:04;40.97;;;20.02;;
64875;SDS011;51369;49.862;9.908;2024-03-08T03:12:32;41.10;;;20.20;;
64875;SDS011;51369;49.862;9.908;2024-03-08T03:14:59;44.33;;;20.77;;
64875;SDS011;51369;49.862;9.908;2024-03-08T03:17:24;42.42;;;20.42;;
64875;SDS011;51369;49.862;9.908;2024-03-08T03:19:50;40.80;;;20.48;;
64875;SDS011;51369;49.862;9.908;2024-03-08T03:22:17;38.28;;;20.13;;
64875;SDS011;51369;49.862;9.908;2024-03-08T03:24:43;40.63;;;20.65;;
64875;SDS011;51369;49.862;9.908;2024-03-08T03:27:09;39.85;;;20.33;;
64875;SDS011;51369;49.862;9.908;2024-03-08T03:29:38;36.70;;;18.65;;
64875;SDS011;51369;49.862;9.908;2024-03-08T03:32:04;35.88;;;18.40;;
64875;SDS011;51369;49.862;9.908;2024-03-08T03:34:30;38.42;;;19.60;;
64875;SDS011;51369;49.862;9.908;2024-03-08T03:36:55;37.50;;;19.27;;
64875;SDS011;51369;49.862;9.908;2024-03-08T03:39:21;39.03;;;18.27;;
64875;SDS011;51369;49.862;9.908;2024-03-08T03:41:48;40.63;;;20.15;;
64875;SDS011;51369;49.862;9.908;2024-03-08T03:44:16;42.33;;;21.00;;
64875;SDS011;51369;49.862;9.908;2024-03-08T03:46:42;42.25;;;21.20;;
64875;SDS011;51369;49.862;9.908;2024-03-08T03:49:10;43.58;;;20.65;;
64875;SDS011;51369;49.862;9.908;2024-03-08T03:51:35;47.38;;;20.67;;
64875;SDS011;51369;49.862;9.908;2024-03-08T03:54:01;42.20;;;19.55;;
64875;SDS011;51369;49.862;9.908;2024-03-08T03:56:28;41.08;;;20.73;;
64875;SDS011;51369;49.862;9.908;2024-03-08T03:58:54;43.38;;;20.10;;
64875;SDS011;51369;49.862;9.908;2024-03-08T04:01:19;39.10;;;20.23;;
64875;SDS011;51369;49.862;9.908;2024-03-08T04:03:45;50.28;;;21.33;;
64875;SDS011;51369;49.862;9.908;2024-03-08T04:06:10;41.88;;;20.58;;
64875;SDS011;51369;49.862;9.908;2024-03-08T04:08:36;42.30;;;20.20;;
64875;SDS011;51369;49.862;9.908;2024-03-08T04:11:01;40.92;;;21.13;;
64875;SDS011;51369;49.862;9.908;2024-03-08T04:13:27;39.92;;;19.35;;
64875;SDS011;51369;49.862;9.908;2024-03-08T04:15:52;45.13;;;21.92;;
64875;SDS011;51369;49.862;9.908;2024-03-08T04:18:18;43.47;;;20.45;;
64875;SDS011;51369;49.862;9.908;2024-03-08T04:20:44;39.55;;;20.67;;
64875;SDS011;51369;49.862;9.908;2024-03-08T04:23:09;42.40;;;20.48;;
64875;SDS011;51369;49.862;9.908;2024-03-08T04:25:35;36.78;;;19.42;;
64875;SDS011;51369;49.862;9.908;2024-03-08T04:28:00;40.42;;;20.25;;
64875;SDS011;51369;49.862;9.908;2024-03-08T04:30:25;40.55;;;20.05;;
64875;SDS011;51369;49.862;9.908;2024-03-08T04:32:53;42.72;;;21.30;;
64875;SDS011;51369;49.862;9.908;2024-03-08T04:35:19;42.25;;;21.35;;
64875;SDS011;51369;49.862;9.908;2024-03-08T04:37:45;42.08;;;21.20;;
64875;SDS011;51369;49.862;9.908;2024-03-08T04:40:10;42.13;;;21.88;;
64875;SDS011;51369;49.862;9.908;2024-03-08T04:42:36;42.53;;;21.17;;
64875;SDS011;51369;49.862;9.908;2024-03-08T04:45:04;42.10;;;20.73;;
64875;SDS011;51369;49.862;9.908;2024-03-08T04:47:30;40.88;;;21.50;;
64875;SDS011;51369;49.862;9.908;2024-03-08T04:49:55;43.72;;;21.52;;
64875;SDS011;51369;49.862;9.908;2024-03-08T04:52:22;46.30;;;22.13;;
64875;SDS011;51369;49.862;9.908;2024-03-08T04:54:47;43.80;;;21.80;;
64875;SDS011;51369;49.862;9.908;2024-03-08T04:57:12;41.08;;;21.45;;
64875;SDS011;51369;49.862;9.908;2024-03-08T04:59:38;49.67;;;21.15;;
64875;SDS011;51369;49.862;9.908;2024-03-08T05:02:03;45.80;;;21.65;;
64875;SDS011;51369;49.862;9.908;2024-03-08T05:04:29;43.25;;;21.00;;
64875;SDS011;51369;49.862;9.908;2024-03-08T05:06:54;39.10;;;19.38;;
64875;SDS011;51369;49.862;9.908;2024-03-08T05:09:20;40.05;;;20.48;;
64875;SDS011;51369;49.862;9.908;2024-03-08T05:11:46;45.92;;;21.00;;
64875;SDS011;51369;49.862;9.908;2024-03-08T05:14:12;45.50;;;21.52;;
64875;SDS011;51369;49.862;9.908;2024-03-08T05:16:44;41.55;;;20.33;;
64875;SDS011;51369;49.862;9.908;2024-03-08T05:19:13;44.42;;;20.55;;
64875;SDS011;51369;49.862;9.908;2024-03-08T05:21:42;44.20;;;20.75;;
64875;SDS011;51369;49.862;9.908;2024-03-08T05:24:09;39.28;;;20.17;;
64875;SDS011;51369;49.862;9.908;2024-03-08T05:26:35;43.08;;;21.00;;
64875;SDS011;51369;49.862;9.908;2024-03-08T05:29:00;38.00;;;20.10;;
64875;SDS011;51369;49.862;9.908;2024-03-08T05:31:26;39.70;;;19.95;;
64875;SDS011;51369;49.862;9.908;2024-03-08T05:33:51;39.60;;;20.10;;
64875;SDS011;51369;49.862;9.908;2024-03-08T05:36:19;44.85;;;21.23;;
64875;SDS011;51369;49.862;9.908;2024-03-08T05:38:44;43.97;;;20.90;;
64875;SDS011;51369;49.862;9.908;2024-03-08T05:41:10;47.13;;;22.38;;
64875;SDS011;51369;49.862;9.908;2024-03-08T05:43:37;39.28;;;19.55;;
64875;SDS011;51369;49.862;9.908;2024-03-08T05:46:02;45.22;;;20.67;;
64875;SDS011;51369;49.862;9.908;2024-03-08T05:48:29;47.70;;;22.20;;
64875;SDS011;51369;49.862;9.908;2024-03-08T05:50:57;42.25;;;20.55;;
64875;SDS011;51369;49.862;9.908;2024-03-08T05:53:22;45.25;;;22.00;;
64875;SDS011;51369;49.862;9.908;2024-03-08T05:55:48;40.13;;;20.55;;
64875;SDS011;51369;49.862;9.908;2024-03-08T05:58:14;41.38;;;21.38;;
64875;SDS011;51369;49.862;9.908;2024-03-08T06:00:40;41.00;;;21.38;;
64875;SDS011;51369;49.862;9.908;2024-03-08T06:03:05;43.92;;;21.02;;
64875;SDS011;51369;49.862;9.908;2024-03-08T06:05:31;50.13;;;21.08;;
64875;SDS011;51369;49.862;9.908;2024-03-08T06:07:56;41.78;;;20.55;;
64875;SDS011;51369;49.862;9.908;2024-03-08T06:10:21;43.35;;;20.55;;
64875;SDS011;51369;49.862;9.908;2024-03-08T06:12:47;42.47;;;20.35;;
64875;SDS011;51369;49.862;9.908;2024-03-08T06:15:12;51.35;;;23.10;;
64875;SDS011;51369;49.862;9.908;2024-03-08T06:17:41;48.13;;;22.13;;
64875;SDS011;51369;49.862;9.908;2024-03-08T06:20:07;45.67;;;22.63;;
64875;SDS011;51369;49.862;9.908;2024-03-08T06:22:38;44.67;;;22.20;;
64875;SDS011;51369;49.862;9.908;2024-03-08T06:25:09;46.00;;;21.83;;
64875;SDS011;51369;49.862;9.908;2024-03-08T06:27:36;42.85;;;21.00;;
64875;SDS011;51369;49.862;9.908;2024-03-08T06:30:02;43.65;;;22.00;;
64875;SDS011;51369;49.862;9.908;2024-03-08T06:32:29;44.17;;;22.80;;
64875;SDS011;51369;49.862;9.908;2024-03-08T06:34:55;47.90;;;23.40;;
64875;SDS011;51369;49.862;9.908;2024-03-08T06:37:20;49.80;;;22.40;;
64875;SDS011;51369;49.862;9.908;2024-03-08T06:39:49;45.03;;;23.50;;
64875;SDS011;51369;49.862;9.908;2024-03-08T06:42:16;37.53;;;19.63;;
64875;SDS011;51369;49.862;9.908;2024-03-08T06:44:41;44.22;;;21.98;;
64875;SDS011;51369;49.862;9.908;2024-03-08T06:47:14;48.30;;;22.33;;
64875;SDS011;51369;49.862;9.908;2024-03-08T06:49:40;43.75;;;22.27;;
64875;SDS011;51369;49.862;9.908;2024-03-08T06:52:06;47.05;;;21.63;;
64875;SDS011;51369;49.862;9.908;2024-03-08T06:54:34;46.60;;;23.20;;
64875;SDS011;51369;49.862;9.908;2024-03-08T06:57:01;49.85;;;23.00;;
64875;SDS011;51369;49.862;9.908;2024-03-08T06:59:28;47.00;;;23.10;;
64875;SDS011;51369;49.862;9.908;2024-03-08T07:01:54;45.92;;;22.08;;
64875;SDS011;51369;49.862;9.908;2024-03-08T07:04:20;45.85;;;22.40;;
64875;SDS011;51369;49.862;9.908;2024-03-08T07:06:47;44.78;;;22.02;;
64875;SDS011;51369;49.862;9.908;2024-03-08T07:09:15;45.63;;;20.83;;
64875;SDS011;51369;49.862;9.908;2024-03-08T07:11:42;48.47;;;23.08;;
64875;SDS011;51369;49.862;9.908;2024-03-08T07:14:07;42.05;;;20.25;;
64875;SDS011;51369;49.862;9.908;2024-03-08T07:16:33;49.17;;;23.58;;
64875;SDS011;51369;49.862;9.908;2024-03-08T07:19:00;47.50;;;23.35;;
64875;SDS011;51369;49.862;9.908;2024-03-08T07:21:26;46.35;;;23.23;;
64875;SDS011;51369;49.862;9.908;2024-03-08T07:23:52;48.88;;;23.88;;
64875;SDS011;51369;49.862;9.908;2024-03-08T07:26:38;46.65;;;23.40;;
64875;SDS011;51369;49.862;9.908;2024-03-08T07:29:04;51.53;;;21.95;;
64875;SDS011;51369;49.862;9.908;2024-03-08T07:31:29;49.78;;;24.13;;
64875;SDS011;51369;49.862;9.908;2024-03-08T07:34:06;46.58;;;22.77;;
64875;SDS011;51369;49.862;9.908;2024-03-08T07:36:33;46.05;;;23.00;;
64875;SDS011;51369;49.862;9.908;2024-03-08T07:38:59;48.08;;;22.33;;
64875;SDS011;51369;49.862;9.908;2024-03-08T07:41:25;45.22;;;22.65;;
64875;SDS011;51369;49.862;9.908;2024-03-08T07:43:50;44.95;;;22.63;;
64875;SDS011;51369;49.862;9.908;2024-03-08T07:46:17;44.92;;;23.83;;
64875;SDS011;51369;49.862;9.908;2024-03-08T07:48:43;45.50;;;23.88;;
64875;SDS011;51369;49.862;9.908;2024-03-08T07:51:10;44.45;;;23.13;;
64875;SDS011;51369;49.862;9.908;2024-03-08T07:53:37;48.97;;;23.58;;
64875;SDS011;51369;49.862;9.908;2024-03-08T07:56:03;46.17;;;23.13;;
64875;SDS011;51369;49.862;9.908;2024-03-08T07:58:30;43.05;;;22.50;;
64875;SDS011;51369;49.862;9.908;2024-03-08T08:00:55;46.67;;;24.80;;
64875;SDS011;51369;49.862;9.908;2024-03-08T08:03:21;48.50;;;22.77;;
64875;SDS011;51369;49.862;9.908;2024-03-08T08:05:46;45.88;;;24.85;;
64875;SDS011;51369;49.862;9.908;2024-03-08T08:08:12;48.25;;;22.02;;
64875;SDS011;51369;49.862;9.908;2024-03-08T08:10:37;42.80;;;22.23;;
64875;SDS011;51369;49.862;9.908;2024-03-08T08:13:02;49.50;;;23.65;;
64875;SDS011;51369;49.862;9.908;2024-03-08T08:15:29;47.45;;;22.92;;
64875;SDS011;51369;49.862;9.908;2024-03-08T08:17:55;48.42;;;22.83;;
64875;SDS011;51369;49.862;9.908;2024-03-08T08:20:20;44.88;;;22.77;;
64875;SDS011;51369;49.862;9.908;2024-03-08T08:22:47;47.97;;;23.83;;
64875;SDS011;51369;49.862;9.908;2024-03-08T08:25:13;43.58;;;23.17;;
64875;SDS011;51369;49.862;9.908;2024-03-08T08:27:41;43.95;;;23.25;;
64875;SDS011;51369;49.862;9.908;2024-03-08T08:30:07;43.47;;;22.42;;
64875;SDS011;51369;49.862;9.908;2024-03-08T08:32:36;43.85;;;22.98;;
64875;SDS011;51369;49.862;9.908;2024-03-08T08:35:02;43.58;;;23.10;;
64875;SDS011;51369;49.862;9.908;2024-03-08T08:37:29;48.08;;;24.48;;
64875;SDS011;51369;49.862;9.908;2024-03-08T08:39:56;44.15;;;22.85;;
64875;SDS011;51369;49.862;9.908;2024-03-08T08:42:21;47.60;;;23.27;;
64875;SDS011;51369;49.862;9.908;2024-03-08T08:44:47;48.63;;;23.30;;
64875;SDS011;51369;49.862;9.908;2024-03-08T08:47:14;47.17;;;22.55;;
64875;SDS011;51369;49.862;9.908;2024-03-08T08:49:43;48.33;;;24.05;;
64875;SDS011;51369;49.862;9.908;2024-03-08T08:52:11;51.88;;;25.92;;
64875;SDS011;51369;49.862;9.908;2024-03-08T08:54:36;46.08;;;23.17;;
64875;SDS011;51369;49.862;9.908;2024-03-08T08:57:01;43.83;;;22.27;;
64875;SDS011;51369;49.862;9.908;2024-03-08T08:59:32;40.58;;;20.58;;
64875;SDS011;51369;49.862;9.908;2024-03-08T09:02:01;44.70;;;21.90;;
64875;SDS011;51369;49.862;9.908;2024-03-08T09:04:28;39.65;;;22.30;;
64875;SDS011;51369;49.862;9.908;2024-03-08T09:06:54;45.42;;;22.75;;
64875;SDS011;51369;49.862;9.908;2024-03-08T09:09:19;37.90;;;21.33;;
64875;SDS011;51369;49.862;9.908;2024-03-08T09:11:47;45.85;;;22.15;;
64875;SDS011;51369;49.862;9.908;2024-03-08T09:14:12;41.38;;;20.42;;
64875;SDS011;51369;49.862;9.908;2024-03-08T09:16:37;43.05;;;22.33;;
64875;SDS011;51369;49.862;9.908;2024-03-08T09:19:03;43.47;;;22.40;;
64875;SDS011;51369;49.862;9.908;2024-03-08T09:21:28;41.92;;;22.02;;
64875;SDS011;51369;49.862;9.908;2024-03-08T09:23:55;43.63;;;21.38;;
64875;SDS011;51369;49.862;9.908;2024-03-08T09:26:20;43.88;;;21.83;;
64875;SDS011;51369;49.862;9.908;2024-03-08T09:28:47;38.88;;;20.95;;
64875;SDS011;51369;49.862;9.908;2024-03-08T09:31:12;41.45;;;22.25;;
64875;SDS011;51369;49.862;9.908;2024-03-08T09:33:38;37.70;;;19.63;;
64875;SDS011;51369;49.862;9.908;2024-03-08T09:36:04;38.75;;;20.25;;
64875;SDS011;51369;49.862;9.908;2024-03-08T09:38:32;42.13;;;21.05;;
64875;SDS011;51369;49.862;9.908;2024-03-08T09:40:59;38.88;;;20.50;;
64875;SDS011;51369;49.862;9.908;2024-03-08T09:43:27;40.47;;;21.33;;
64875;SDS011;51369;49.862;9.908;2024-03-08T09:45:53;40.28;;;20.75;;
64875;SDS011;51369;49.862;9.908;2024-03-08T09:48:20;40.92;;;20.48;;
64875;SDS011;51369;49.862;9.908;2024-03-08T09:50:47;44.53;;;21.80;;
64875;SDS011;51369;49.862;9.908;2024-03-08T09:53:13;42.13;;;20.67;;
64875;SDS011;51369;49.862;9.908;2024-03-08T09:55:38;42.42;;;20.20;;
64875;SDS011;51369;49.862;9.908;2024-03-08T09:58:10;40.05;;;19.48;;
64875;SDS011;51369;49.862;9.908;2024-03-08T10:01:07;34.92;;;19.45;;
64875;SDS011;51369;49.862;9.908;2024-03-08T10:03:33;36.30;;;20.52;;
64875;SDS011;51369;49.862;9.908;2024-03-08T10:05:59;36.22;;;19.15;;
64875;SDS011;51369;49.862;9.908;2024-03-08T10:08:26;37.78;;;19.77;;
64875;SDS011;51369;49.862;9.908;2024-03-08T10:10:54;33.72;;;17.75;;
64875;SDS011;51369;49.862;9.908;2024-03-08T10:13:20;37.80;;;19.02;;
64875;SDS011;51369;49.862;9.908;2024-03-08T10:15:46;37.88;;;19.95;;
64875;SDS011;51369;49.862;9.908;2024-03-08T10:18:11;36.47;;;19.70;;
64875;SDS011;51369;49.862;9.908;2024-03-08T10:20:37;34.25;;;19.02;;
64875;SDS011;51369;49.862;9.908;2024-03-08T10:23:03;35.28;;;17.85;;
64875;SDS011;51369;49.862;9.908;2024-03-08T10:25:33;32.58;;;18.63;;
64875;SDS011;51369;49.862;9.908;2024-03-08T10:27:59;34.70;;;19.77;;
64875;SDS011;51369;49.862;9.908;2024-03-08T10:30:24;35.97;;;19.30;;
64875;SDS011;51369;49.862;9.908;2024-03-08T10:32:50;37.83;;;19.80;;
64875;SDS011;51369;49.862;9.908;2024-03-08T10:35:17;34.17;;;18.90;;
64875;SDS011;51369;49.862;9.908;2024-03-08T10:37:47;36.00;;;18.23;;
64875;SDS011;51369;49.862;9.908;2024-03-08T10:40:18;33.03;;;18.77;;
64875;SDS011;51369;49.862;9.908;2024-03-08T10:48:08;32.75;;;18.80;;
64875;SDS011;51369;49.862;9.908;2024-03-08T10:50:43;33.15;;;18.10;;
64875;SDS011;51369;49.862;9.908;2024-03-08T10:53:11;34.38;;;18.35;;
64875;SDS011;51369;49.862;9.908;2024-03-08T10:55:39;32.63;;;18.17;;
64875;SDS011;51369;49.862;9.908;2024-03-08T10:58:06;31.23;;;18.67;;
64875;SDS011;51369;49.862;9.908;2024-03-08T11:00:33;36.45;;;17.85;;
64875;SDS011;51369;49.862;9.908;2024-03-08T11:02:58;36.33;;;20.23;;
64875;SDS011;51369;49.862;9.908;2024-03-08T11:05:32;33.55;;;19.00;;
64875;SDS011;51369;49.862;9.908;2024-03-08T11:08:03;31.00;;;18.15;;
64875;SDS011;51369;49.862;9.908;2024-03-08T11:10:49;33.25;;;18.65;;
64875;SDS011;51369;49.862;9.908;2024-03-08T11:13:42;36.23;;;18.63;;
64875;SDS011;51369;49.862;9.908;2024-03-08T11:16:11;37.17;;;18.40;;
64875;SDS011;51369;49.862;9.908;2024-03-08T11:18:37;36.25;;;18.45;;
64875;SDS011;51369;49.862;9.908;2024-03-08T11:21:03;41.60;;;19.42;;
64875;SDS011;51369;49.862;9.908;2024-03-08T11:23:32;33.67;;;19.10;;
64875;SDS011;51369;49.862;9.908;2024-03-08T11:25:58;37.55;;;19.42;;
64875;SDS011;51369;49.862;9.908;2024-03-08T11:28:24;33.13;;;19.08;;
64875;SDS011;51369;49.862;9.908;2024-03-08T11:33:27;33.13;;;17.42;;
64875;SDS011;51369;49.862;9.908;2024-03-08T11:38:39;33.75;;;18.40;;
64875;SDS011;51369;49.862;9.908;2024-03-08T11:41:05;32.60;;;17.52;;
64875;SDS011;51369;49.862;9.908;2024-03-08T11:43:31;32.47;;;17.98;;
64875;SDS011;51369;49.862;9.908;2024-03-08T11:46:09;34.55;;;20.50;;
64875;SDS011;51369;49.862;9.908;2024-03-08T11:48:35;30.38;;;17.65;;
64875;SDS011;51369;49.862;9.908;2024-03-08T11:51:03;30.42;;;18.23;;
64875;SDS011;51369;49.862;9.908;2024-03-08T11:53:30;32.75;;;18.45;;
64875;SDS011;51369;49.862;9.908;2024-03-08T11:56:05;33.65;;;18.67;;
64875;SDS011;51369;49.862;9.908;2024-03-08T11:58:34;35.85;;;19.38;;
64875;SDS011;51369;49.862;9.908;2024-03-08T12:01:06;32.20;;;19.10;;
64875;SDS011;51369;49.862;9.908;2024-03-08T12:03:34;32.35;;;18.85;;
64875;SDS011;51369;49.862;9.908;2024-03-08T12:06:03;31.83;;;17.20;;
64875;SDS011;51369;49.862;9.908;2024-03-08T12:08:30;32.65;;;18.83;;
64875;SDS011;51369;49.862;9.908;2024-03-08T12:10:56;35.58;;;19.50;;
64875;SDS011;51369;49.862;9.908;2024-03-08T12:13:31;31.27;;;18.35;;
64875;SDS011;51369;49.862;9.908;2024-03-08T12:15:59;35.45;;;20.10;;
64875;SDS011;51369;49.862;9.908;2024-03-08T12:18:25;31.23;;;18.80;;
64875;SDS011;51369;49.862;9.908;2024-03-08T12:21:03;29.52;;;18.38;;
64875;SDS011;51369;49.862;9.908;2024-03-08T12:23:33;35.70;;;18.15;;
64875;SDS011;51369;49.862;9.908;2024-03-08T12:26:09;34.63;;;18.05;;
64875;SDS011;51369;49.862;9.908;2024-03-08T12:28:39;27.30;;;16.90;;
64875;SDS011;51369;49.862;9.908;2024-03-08T12:31:06;28.55;;;16.63;;
64875;SDS011;51369;49.862;9.908;2024-03-08T12:33:36;30.55;;;17.00;;
64875;SDS011;51369;49.862;9.908;2024-03-08T12:36:13;29.05;;;17.42;;
64875;SDS011;51369;49.862;9.908;2024-03-08T12:38:40;27.70;;;15.45;;
64875;SDS011;51369;49.862;9.908;2024-03-08T12:41:05;34.63;;;18.38;;
64875;SDS011;51369;49.862;9.908;2024-03-08T12:43:30;28.70;;;16.73;;
64875;SDS011;51369;49.862;9.908;2024-03-08T12:45:56;27.05;;;15.35;;
64875;SDS011;51369;49.862;9.908;2024-03-08T12:48:22;29.02;;;15.63;;
64875;SDS011;51369;49.862;9.908;2024-03-08T12:50:47;35.92;;;15.90;;
64875;SDS011;51369;49.862;9.908;2024-03-08T12:53:13;28.13;;;15.68;;
64875;SDS011;51369;49.862;9.908;2024-03-08T12:55:39;31.90;;;15.00;;
64875;SDS011;51369;49.862;9.908;2024-03-08T12:58:05;23.73;;;14.75;;
64875;SDS011;51369;49.862;9.908;2024-03-08T13:00:33;26.42;;;15.88;;
64875;SDS011;51369;49.862;9.908;2024-03-08T13:03:01;23.13;;;14.60;;
64875;SDS011;51369;49.862;9.908;2024-03-08T13:05:27;30.05;;;15.43;;
64875;SDS011;51369;49.862;9.908;2024-03-08T13:07:53;25.52;;;15.60;;
64875;SDS011;51369;49.862;9.908;2024-03-08T13:10:19;28.75;;;16.17;;
64875;SDS011;51369;49.862;9.908;2024-03-08T13:12:45;24.90;;;14.57;;
64875;SDS011;51369;49.862;9.908;2024-03-08T13:15:11;26.77;;;15.02;;
64875;SDS011;51369;49.862;9.908;2024-03-08T13:17:41;27.55;;;14.90;;
64875;SDS011;51369;49.862;9.908;2024-03-08T13:20:07;23.17;;;14.77;;
64875;SDS011;51369;49.862;9.908;2024-03-08T13:22:34;23.48;;;14.95;;
64875;SDS011;51369;49.862;9.908;2024-03-08T13:25:00;22.40;;;14.38;;
64875;SDS011;51369;49.862;9.908;2024-03-08T13:27:27;24.50;;;15.07;;
64875;SDS011;51369;49.862;9.908;2024-03-08T13:29:53;25.02;;;14.30;;
64875;SDS011;51369;49.862;9.908;2024-03-08T13:32:18;33.22;;;15.35;;
64875;SDS011;51369;49.862;9.908;2024-03-08T13:34:45;23.45;;;14.55;;
64875;SDS011;51369;49.862;9.908;2024-03-08T13:37:12;23.05;;;14.00;;
64875;SDS011;51369;49.862;9.908;2024-03-08T13:39:41;19.50;;;12.55;;
64875;SDS011;51369;49.862;9.908;2024-03-08T13:42:11;22.92;;;13.07;;
64875;SDS011;51369;49.862;9.908;2024-03-08T13:44:38;20.10;;;12.27;;
64875;SDS011;51369;49.862;9.908;2024-03-08T13:47:05;21.98;;;12.18;;
64875;SDS011;51369;49.862;9.908;2024-03-08T13:49:32;21.52;;;12.45;;
64875;SDS011;51369;49.862;9.908;2024-03-08T13:51:58;21.13;;;12.15;;
64875;SDS011;51369;49.862;9.908;2024-03-08T13:54:24;25.10;;;12.88;;
64875;SDS011;51369;49.862;9.908;2024-03-08T13:56:50;22.25;;;13.07;;
64875;SDS011;51369;49.862;9.908;2024-03-08T13:59:19;23.08;;;12.35;;
64875;SDS011;51369;49.862;9.908;2024-03-08T14:01:47;18.42;;;12.43;;
64875;SDS011;51369;49.862;9.908;2024-03-08T14:04:14;20.35;;;13.27;;
64875;SDS011;51369;49.862;9.908;2024-03-08T14:06:40;20.23;;;12.48;;
64875;SDS011;51369;49.862;9.908;2024-03-08T14:09:05;19.13;;;12.30;;
64875;SDS011;51369;49.862;9.908;2024-03-08T14:11:33;21.15;;;12.60;;
64875;SDS011;51369;49.862;9.908;2024-03-08T14:13:58;19.73;;;11.98;;
64875;SDS011;51369;49.862;9.908;2024-03-08T14:16:23;21.98;;;12.65;;
64875;SDS011;51369;49.862;9.908;2024-03-08T14:18:49;16.25;;;10.90;;
64875;SDS011;51369;49.862;9.908;2024-03-08T14:21:14;18.73;;;11.80;;
64875;SDS011;51369;49.862;9.908;2024-03-08T14:23:41;19.75;;;10.60;;
64875;SDS011;51369;49.862;9.908;2024-03-08T14:26:08;18.50;;;11.93;;
64875;SDS011;51369;49.862;9.908;2024-03-08T14:28:34;17.50;;;11.30;;